Time;durP1;ratioP1;P1;durP2;ratioP2;P2;SDS_P1;SDS_P2;PMS_P1;PMS_P2;Temp;Humidity;BMP_temperature;BMP_pressure;BME280_temperature;BME280_humidity;BME280_pressure;Samples;Min_cycle;Max_cycle;Signal;HPM_P1;HPM_P2
2021/04/24 00:00:34;;;;;;;14.50;4.18;;;;;;;4.73;77.63;102541.31;6222100;28;20046;-72
2021/04/24 00:03:35;;;;;;;9.40;3.50;;;;;;;4.67;77.42;102546.50;6221799;28;20057;-71
2021/04/24 00:06:36;;;;;;;15.93;4.22;;;;;;;4.54;75.99;102546.50;6221971;28;20069;-71
2021/04/24 00:09:38;;;;;;;12.10;4.43;;;;;;;4.50;78.75;102536.09;6221894;28;20050;-71
2021/04/24 00:12:39;;;;;;;12.05;3.78;;;;;;;4.51;77.70;102535.22;6221844;28;20054;-71
2021/04/24 00:15:42;;;;;;;9.98;3.88;;;;;;;4.66;77.42;102542.16;6221598;28;20428;-72
2021/04/24 00:18:43;;;;;;;10.98;4.22;;;;;;;4.52;77.48;102542.16;6221657;28;20472;-71
2021/04/24 00:21:44;;;;;;;13.77;4.38;;;;;;;4.53;79.44;102542.16;6221721;28;20084;-71
2021/04/24 00:24:46;;;;;;;15.00;4.22;;;;;;;4.70;77.30;102531.75;6221232;28;20137;-71
2021/04/24 00:27:47;;;;;;;13.50;4.28;;;;;;;4.72;76.72;102527.38;6230410;28;20437;-69
2021/04/24 00:30:48;;;;;;;14.38;4.55;;;;;;;4.80;76.54;102533.47;6227235;28;20465;-70
2021/04/24 00:33:49;;;;;;;11.55;3.85;;;;;;;4.85;77.15;102523.03;6221924;28;20058;-70
2021/04/24 00:36:49;;;;;;;12.23;5.00;;;;;;;4.82;76.57;102523.06;6221705;28;20152;-70
2021/04/24 00:39:51;;;;;;;9.45;4.07;;;;;;;4.79;77.25;102526.53;6221357;28;20081;-72
2021/04/24 00:42:52;;;;;;;12.65;4.63;;;;;;;4.73;76.54;102531.75;6221492;28;20065;-72
2021/04/24 00:45:53;;;;;;;13.90;4.60;;;;;;;4.50;78.02;102526.53;6221489;28;20055;-72
2021/04/24 00:48:54;;;;;;;16.88;4.78;;;;;;;4.48;79.25;102530.00;6251470;23;20050;-77
2021/04/24 00:51:55;;;;;;;13.13;4.35;;;;;;;4.64;79.12;102531.75;6246740;28;20052;-78
2021/04/24 00:54:56;;;;;;;12.38;4.57;;;;;;;4.78;79.04;102532.63;6246880;28;20515;-78
2021/04/24 00:57:58;;;;;;;15.93;5.65;;;;;;;4.76;79.75;102534.34;6237650;28;20057;-78
2021/04/24 01:00:59;;;;;;;12.95;4.60;;;;;;;4.77;80.18;102530.03;6223750;28;20053;-77
2021/04/24 01:04:01;;;;;;;15.90;5.38;;;;;;;4.51;82.46;102523.06;6226968;28;20525;-78
2021/04/24 01:07:03;;;;;;;12.70;5.35;;;;;;;4.58;82.49;102529.13;6227185;28;20046;-77
2021/04/24 01:10:06;;;;;;;16.98;5.30;;;;;;;4.53;84.03;102534.34;6227799;28;20057;-78
2021/04/24 01:13:08;;;;;;;23.02;6.40;;;;;;;4.77;83.01;102527.41;6227088;28;20050;-77
2021/04/24 01:16:09;;;;;;;13.68;5.97;;;;;;;4.80;83.96;102527.38;6226615;28;20053;-77
2021/04/24 01:19:12;;;;;;;18.52;6.07;;;;;;;4.83;84.52;102527.41;6226621;28;20530;-77
2021/04/24 01:22:14;;;;;;;18.30;6.35;;;;;;;4.90;84.15;102523.03;6226192;28;20048;-77
2021/04/24 01:25:17;;;;;;;16.52;7.30;;;;;;;4.89;84.34;102531.72;6225960;28;20057;-77
2021/04/24 01:28:18;;;;;;;15.52;6.32;;;;;;;4.89;84.60;102530.00;6225791;28;20046;-77
2021/04/24 01:31:18;;;;;;;18.58;6.32;;;;;;;4.98;84.75;102523.91;6226167;28;20056;-77
2021/04/24 01:34:20;;;;;;;17.35;5.85;;;;;;;5.07;84.94;102527.34;6225689;28;20103;-80
2021/04/24 01:37:21;;;;;;;15.10;6.43;;;;;;;5.04;84.27;102523.88;6227204;28;20053;-77
2021/04/24 01:40:23;;;;;;;18.83;6.47;;;;;;;5.04;84.20;102522.16;6225992;28;20046;-80
2021/04/24 01:43:24;;;;;;;22.02;6.55;;;;;;;5.08;84.20;102521.25;6227608;28;20514;-78
2021/04/24 01:46:25;;;;;;;11.63;6.05;;;;;;;5.15;83.86;102524.75;6226842;28;20134;-77
2021/04/24 01:49:26;;;;;;;13.77;6.10;;;;;;;5.23;84.72;102517.78;6225763;28;20534;-78
2021/04/24 01:52:33;;;;;;;16.50;6.28;;;;;;;4.93;85.16;102517.84;6226158;28;20505;-78
2021/04/24 01:55:36;;;;;;;14.02;6.57;;;;;;;5.15;85.06;102511.72;6225154;28;20050;-78
2021/04/24 01:58:38;;;;;;;17.35;6.60;;;;;;;4.96;85.14;102507.41;6225550;28;20460;-77
2021/04/24 02:01:38;;;;;;;18.25;6.45;;;;;;;4.80;85.76;102519.56;6225357;28;20049;-78
2021/04/24 02:04:39;;;;;;;15.82;5.78;;;;;;;4.77;85.90;102525.69;6225372;28;20085;-78
2021/04/24 02:07:41;;;;;;;17.63;6.35;;;;;;;4.80;86.91;102514.38;6225282;28;20146;-80
2021/04/24 02:10:46;;;;;;;19.73;6.45;;;;;;;4.87;86.31;102512.66;6228586;28;20046;-80
2021/04/24 02:13:47;;;;;;;13.55;5.95;;;;;;;4.96;85.71;102502.22;6226558;28;20061;-77
2021/04/24 02:16:49;;;;;;;21.10;5.93;;;;;;;4.95;86.55;102508.25;6225509;28;20611;-79
2021/04/24 02:19:52;;;;;;;17.10;6.72;;;;;;;4.95;85.03;102506.56;6227487;28;20046;-77
2021/04/24 02:22:53;;;;;;;19.30;6.78;;;;;;;4.82;85.96;102503.09;6226180;28;20088;-80
2021/04/24 02:25:54;;;;;;;14.88;6.18;;;;;;;4.82;84.83;102516.13;6226603;28;20061;-78
2021/04/24 02:28:55;;;;;;;19.48;7.05;;;;;;;4.72;86.96;102505.69;6224685;28;20169;-78
2021/04/24 02:31:56;;;;;;;17.15;6.72;;;;;;;4.70;86.83;102515.25;6224783;28;20128;-80
2021/04/24 02:34:58;;;;;;;14.25;6.07;;;;;;;4.73;86.69;102505.72;6224688;28;20076;-78
2021/04/24 02:38:00;;;;;;;22.77;6.78;;;;;;;4.66;86.38;102500.50;6225110;28;20095;-77
2021/04/24 02:41:04;;;;;;;16.35;6.35;;;;;;;4.64;86.38;102495.31;6224526;28;20060;-77
2021/04/24 02:44:06;;;;;;;17.92;6.28;;;;;;;4.62;86.86;102501.38;6224001;28;20120;-78
2021/04/24 02:47:07;;;;;;;14.77;6.57;;;;;;;4.53;87.44;102497.88;6224654;28;20045;-77
2021/04/24 02:50:11;;;;;;;12.98;6.95;;;;;;;4.43;88.98;102503.09;6224305;28;20061;-77
2021/04/24 02:53:13;;;;;;;16.80;6.35;;;;;;;4.40;89.25;102509.16;6224119;28;20060;-77
2021/04/24 02:56:14;;;;;;;14.65;5.72;;;;;;;4.42;89.62;102509.19;6224061;28;20054;-77
2021/04/24 02:59:16;;;;;;;14.25;6.40;;;;;;;4.38;89.43;102513.50;6222737;28;20107;-77
2021/04/24 03:02:17;;;;;;;18.73;7.47;;;;;;;4.36;89.85;102509.16;6222784;28;20049;-77
2021/04/24 03:05:18;;;;;;;15.95;7.13;;;;;;;4.33;89.84;102518.72;6223834;28;20046;-78
2021/04/24 03:08:20;;;;;;;16.05;6.95;;;;;;;4.32;89.23;102516.97;6223887;28;20461;-78
2021/04/24 03:11:20;;;;;;;15.35;6.35;;;;;;;4.26;91.07;102516.97;6224243;28;20103;-78
2021/04/24 03:14:21;;;;;;;17.92;7.03;;;;;;;4.37;90.28;102526.53;6223894;28;20054;-77
2021/04/24 03:17:22;;;;;;;17.85;6.72;;;;;;;4.26;90.94;102527.38;6224574;28;20057;-77
2021/04/24 03:20:24;;;;;;;19.50;7.32;;;;;;;4.28;90.04;102517.84;6224326;28;20050;-77
2021/04/24 03:23:25;;;;;;;18.80;7.05;;;;;;;4.19;90.16;102510.03;6222790;28;20054;-77
2021/04/24 03:26:26;;;;;;;18.33;7.65;;;;;;;4.21;91.12;102512.63;6223396;28;20057;-77
2021/04/24 03:29:27;;;;;;;21.67;7.97;;;;;;;4.27;90.86;102516.13;6223881;28;20054;-78
2021/04/24 03:32:28;;;;;;;14.95;6.82;;;;;;;4.38;90.63;102507.44;6224229;28;20100;-78
2021/04/24 03:35:29;;;;;;;17.05;8.02;;;;;;;4.24;90.08;102504.81;6223638;28;20133;-77
2021/04/24 03:38:31;;;;;;;26.60;7.82;;;;;;;4.25;90.58;102510.03;6224050;28;20092;-77
2021/04/24 03:41:32;;;;;;;14.77;7.40;;;;;;;4.25;91.21;102511.75;6223886;28;20042;-77
2021/04/24 03:44:33;;;;;;;16.10;7.45;;;;;;;4.25;91.19;102507.41;6224123;28;20517;-78
2021/04/24 03:47:34;;;;;;;20.88;7.65;;;;;;;4.21;90.55;102510.03;6224604;28;20137;-77
2021/04/24 03:50:34;;;;;;;20.55;6.97;;;;;;;4.20;90.38;102501.34;6223992;28;20045;-78
2021/04/24 03:53:36;;;;;;;21.50;7.88;;;;;;;4.15;90.45;102508.28;6223702;28;20128;-77
2021/04/24 03:56:37;;;;;;;20.90;8.30;;;;;;;4.13;91.06;102519.53;6223117;28;20046;-77
2021/04/24 03:59:38;;;;;;;24.00;7.63;;;;;;;4.10;90.31;102520.41;6222838;28;20084;-78
2021/04/24 04:02:49;;;;;;;18.67;7.30;;;;;;;4.01;89.95;102520.41;6222637;28;20049;-77
2021/04/24 04:05:50;;;;;;;19.88;7.93;;;;;;;3.97;90.53;102518.66;6223585;28;20066;-77
2021/04/24 04:08:51;;;;;;;20.77;7.93;;;;;;;3.94;91.00;102521.22;6222861;28;20112;-77
2021/04/24 04:11:52;;;;;;;19.50;8.25;;;;;;;3.93;90.18;102517.78;6223144;28;20046;-78
2021/04/24 04:14:53;;;;;;;20.00;7.57;;;;;;;3.87;91.02;102525.56;6222604;28;20050;-81
2021/04/24 04:17:57;;;;;;;19.17;7.22;;;;;;;3.79;90.24;102522.06;6224628;28;20057;-79
2021/04/24 04:20:58;;;;;;;18.38;8.45;;;;;;;3.81;91.33;102515.13;6223224;28;20517;-79
2021/04/24 04:24:00;;;;;;;18.92;7.40;;;;;;;3.88;90.76;102524.69;6223559;28;20049;-79
2021/04/24 04:27:00;;;;;;;19.20;7.72;;;;;;;3.86;91.03;102518.63;6224863;28;20421;-80
2021/04/24 04:30:01;;;;;;;22.05;7.90;;;;;;;3.88;90.71;102516.91;6224778;28;20053;-79
2021/04/24 04:33:04;;;;;;;17.65;7.55;;;;;;;3.85;91.25;102521.22;6225176;28;20153;-79
2021/04/24 04:36:05;;;;;;;19.33;8.00;;;;;;;3.84;90.81;102524.69;6219551;28;20057;-79
2021/04/24 04:39:07;;;;;;;21.15;8.18;;;;;;;3.85;90.71;102527.28;6214549;28;20053;-79
2021/04/24 04:42:08;;;;;;;19.38;7.95;;;;;;;3.83;91.62;102528.16;6217334;28;20058;-79
2021/04/24 04:45:11;;;;;;;18.02;8.23;;;;;;;3.85;91.87;102537.69;6216392;28;20053;-78
2021/04/24 04:48:11;;;;;;;22.02;9.00;;;;;;;3.87;91.24;102535.09;6214951;28;20104;-79
2021/04/24 04:51:12;;;;;;;17.10;7.97;;;;;;;3.76;91.75;102533.31;6214237;28;20117;-80
2021/04/24 04:54:14;;;;;;;20.88;8.95;;;;;;;3.77;92.78;102528.97;6226697;28;20041;-79
2021/04/24 04:57:15;;;;;;;21.98;8.13;;;;;;;3.73;92.31;102524.66;6214600;28;20077;-78
2021/04/24 05:00:18;;;;;;;20.45;7.97;;;;;;;3.75;92.80;102526.38;6214567;28;20159;-79
2021/04/24 05:03:19;;;;;;;20.00;7.78;;;;;;;3.74;93.49;102527.25;6214264;28;20046;-79
2021/04/24 05:06:20;;;;;;;22.40;9.25;;;;;;;3.74;93.79;102527.25;6215614;28;20613;-79
2021/04/24 05:09:22;;;;;;;23.02;8.82;;;;;;;3.81;93.04;102522.94;6213634;28;20414;-80
2021/04/24 05:12:24;;;;;;;22.27;8.80;;;;;;;3.87;94.13;102524.69;6214805;28;20043;-79
2021/04/24 05:15:24;;;;;;;24.52;8.30;;;;;;;3.93;93.55;102533.38;6213198;28;20525;-79
2021/04/24 05:18:25;;;;;;;20.25;8.38;;;;;;;3.97;93.06;102524.72;6214187;28;20046;-79
2021/04/24 05:21:27;;;;;;;19.00;8.43;;;;;;;4.03;93.00;102522.13;6215857;28;20054;-79
2021/04/24 05:24:29;;;;;;;20.30;8.95;;;;;;;4.10;93.13;102522.16;6210504;28;20045;-79
2021/04/24 05:27:31;;;;;;;23.63;9.07;;;;;;;4.16;93.42;102517.81;6213403;28;20057;-79
2021/04/24 05:30:32;;;;;;;18.55;8.43;;;;;;;4.22;92.38;102520.41;6208636;28;20074;-79
2021/04/24 05:33:33;;;;;;;20.30;8.15;;;;;;;4.16;93.05;102511.75;6211630;28;20133;-80
2021/04/24 05:36:34;;;;;;;21.02;8.38;;;;;;;4.31;93.72;102520.47;6203119;28;20125;-79
2021/04/24 05:39:37;;;;;;;18.55;8.00;;;;;;;4.30;94.06;102520.44;6217888;28;20050;-79
2021/04/24 05:42:38;;;;;;;19.52;7.38;;;;;;;4.51;93.82;102520.47;6210820;28;20050;-79
2021/04/24 05:45:39;;;;;;;22.52;8.23;;;;;;;4.70;93.18;102517.84;6218313;28;20103;-79
2021/04/24 05:48:40;;;;;;;19.08;9.85;;;;;;;4.73;92.98;102521.34;6219507;28;20498;-79
2021/04/24 05:51:40;;;;;;;19.48;8.00;;;;;;;4.89;91.99;102513.50;6227162;28;20128;-78
2021/04/24 05:54:43;;;;;;;20.88;7.43;;;;;;;4.78;93.12;102519.59;6225749;28;20055;-78
2021/04/24 05:57:45;;;;;;;17.38;7.70;;;;;;;4.93;92.82;102525.66;6218371;28;20062;-79
2021/04/24 06:00:46;;;;;;;19.08;7.65;;;;;;;5.11;91.71;102529.97;6226800;28;20045;-79
2021/04/24 06:03:46;;;;;;;21.73;7.78;;;;;;;5.35;91.26;102522.94;6226783;28;20052;-79
2021/04/24 06:06:47;;;;;;;22.42;8.18;;;;;;;5.26;90.56;102522.09;6225945;28;20054;-78
2021/04/24 06:09:49;;;;;;;19.10;7.50;;;;;;;5.44;90.76;102516.81;6225862;28;20077;-79
2021/04/24 06:12:50;;;;;;;18.75;6.80;;;;;;;5.50;90.39;102524.66;6225572;28;20127;-80
2021/04/24 06:15:51;;;;;;;25.60;7.22;;;;;;;5.41;91.33;102519.47;6213193;28;20466;-79
2021/04/24 06:18:52;;;;;;;17.38;7.80;;;;;;;5.59;90.72;102516.78;6226534;28;20057;-79
2021/04/24 06:21:53;;;;;;;15.35;6.57;;;;;;;5.57;90.74;102517.66;6227732;28;20042;-79
2021/04/24 06:24:55;;;;;;;14.18;6.50;;;;;;;5.66;89.66;102514.13;6225529;28;20457;-79
2021/04/24 06:27:56;;;;;;;18.23;7.80;;;;;;;5.83;90.05;102522.75;6207209;28;20046;-79
2021/04/24 06:30:56;;;;;;;18.08;7.35;;;;;;;5.83;89.44;102522.75;6210628;28;20651;-80
2021/04/24 06:33:57;;;;;;;22.58;7.10;;;;;;;5.97;87.87;102526.19;6202261;28;20108;-79
2021/04/24 06:36:58;;;;;;;14.45;6.80;;;;;;;6.24;87.07;102521.69;6202973;28;20066;-79
2021/04/24 06:40:00;;;;;;;19.00;7.20;;;;;;;6.13;87.02;102519.13;6202567;28;20507;-80
2021/04/24 06:43:01;;;;;;;17.67;7.32;;;;;;;6.15;87.27;102529.56;6214265;28;20049;-78
2021/04/24 06:46:02;;;;;;;17.35;6.30;;;;;;;5.96;87.61;102523.59;6227374;28;20399;-79
2021/04/24 06:49:03;;;;;;;16.83;6.82;;;;;;;6.03;87.42;102518.31;6226434;28;20137;-78
2021/04/24 06:52:05;;;;;;;19.15;7.35;;;;;;;6.14;87.65;102513.06;6227479;28;20049;-79
2021/04/24 06:55:09;;;;;;;18.27;7.22;;;;;;;6.09;87.71;102520.03;6226368;28;20057;-79
2021/04/24 06:58:11;;;;;;;19.30;8.38;;;;;;;6.19;86.66;102506.06;6249541;23;20056;-72
2021/04/24 07:01:11;;;;;;;18.85;7.22;;;;;;;6.39;85.81;102508.50;6246683;28;20049;-72
2021/04/24 07:04:12;;;;;;;21.00;7.25;;;;;;;6.57;85.32;102510.09;6247090;28;20053;-72
2021/04/24 07:07:13;;;;;;;17.90;7.10;;;;;;;6.57;84.61;102516.19;6223016;28;20081;-72
2021/04/24 07:10:16;;;;;;;23.45;8.10;;;;;;;6.67;85.26;102510.88;6215090;28;20061;-72
2021/04/24 07:13:18;;;;;;;20.23;7.82;;;;;;;6.66;84.64;102527.44;6222844;28;20050;-72
2021/04/24 07:16:19;;;;;;;15.75;7.18;;;;;;;6.74;83.93;102520.41;6222754;28;20045;-72
2021/04/24 07:19:20;;;;;;;24.30;7.10;;;;;;;6.76;81.50;102516.03;6222564;28;20542;-72
2021/04/24 07:22:21;;;;;;;19.05;6.72;;;;;;;6.85;83.17;102521.19;6222607;28;20050;-72
2021/04/24 07:25:22;;;;;;;18.70;7.20;;;;;;;6.89;81.60;102514.19;6222337;28;20434;-72
2021/04/24 07:28:23;;;;;;;22.60;6.45;;;;;;;7.17;78.76;102517.38;6222723;28;20068;-73
2021/04/24 07:31:24;;;;;;;18.38;6.18;;;;;;;6.89;79.29;102516.78;6222475;28;20050;-72
2021/04/24 07:34:25;;;;;;;18.15;7.68;;;;;;;6.92;79.62;102520.25;6222483;28;20460;-73
2021/04/24 07:37:26;;;;;;;20.27;5.93;;;;;;;7.09;78.32;102520.09;6222326;28;20050;-74
2021/04/24 07:40:28;;;;;;;15.70;6.28;;;;;;;6.99;76.94;102511.44;6221806;28;20045;-72
2021/04/24 07:43:28;;;;;;;14.05;6.00;;;;;;;6.89;77.10;102507.19;6212851;28;20513;-72
2021/04/24 07:46:29;;;;;;;18.95;5.55;;;;;;;7.20;76.96;102507.75;6222401;28;20136;-72
2021/04/24 07:49:30;;;;;;;22.52;5.70;;;;;;;7.28;73.70;102508.53;6222257;28;20046;-72
2021/04/24 07:52:31;;;;;;;17.55;5.60;;;;;;;7.51;72.71;102518.72;6222061;28;20522;-72
2021/04/24 07:55:33;;;;;;;16.75;5.95;;;;;;;7.46;73.06;102519.69;6221960;28;20077;-72
2021/04/24 07:58:34;;;;;;;15.15;5.15;;;;;;;7.24;74.39;102516.44;6221894;28;20054;-72
2021/04/24 08:01:36;;;;;;;17.10;5.60;;;;;;;7.18;73.67;102513.91;6222113;28;20069;-72
2021/04/24 08:04:37;;;;;;;18.88;5.82;;;;;;;7.00;74.63;102520.19;6221822;28;20482;-72
2021/04/24 08:07:38;;;;;;;17.42;4.72;;;;;;;7.08;74.65;102526.16;6221864;28;20108;-72
2021/04/24 08:10:39;;;;;;;13.20;4.82;;;;;;;7.47;73.52;102516.16;6224291;28;20621;-72
2021/04/24 08:13:40;;;;;;;13.25;5.63;;;;;;;7.56;71.71;102521.28;6226885;28;20096;-73
2021/04/24 08:16:41;;;;;;;13.85;4.57;;;;;;;7.49;70.81;102523.09;6211435;28;20073;-72
2021/04/24 08:19:42;;;;;;;10.55;4.50;;;;;;;7.20;71.43;102526.06;6201762;28;20053;-73
2021/04/24 08:22:43;;;;;;;15.10;4.72;;;;;;;7.24;70.90;102519.06;6202105;28;20047;-73
2021/04/24 08:25:44;;;;;;;16.40;4.43;;;;;;;7.18;71.83;102513.91;6201414;28;20049;-72
2021/04/24 08:28:45;;;;;;;17.42;4.68;;;;;;;7.37;68.95;102508.44;6202179;28;20086;-73
2021/04/24 08:31:46;;;;;;;19.20;4.90;;;;;;;7.33;70.31;102505.88;6204187;28;20477;-73
2021/04/24 08:34:47;;;;;;;16.80;4.45;;;;;;;7.53;70.43;102509.09;6215309;28;20101;-73
2021/04/24 08:37:49;;;;;;;15.82;5.18;;;;;;;7.72;69.68;102514.09;6222587;28;20050;-72
2021/04/24 08:40:52;;;;;;;15.70;5.95;;;;;;;7.98;70.28;102504.16;6220858;28;20050;-72
2021/04/24 08:43:56;;;;;;;11.50;5.13;;;;;;;8.26;68.04;102509.84;6225621;28;20061;-72
2021/04/24 08:46:57;;;;;;;17.67;4.65;;;;;;;8.28;66.98;102505.47;6219466;28;20050;-72
2021/04/24 08:49:59;;;;;;;11.27;4.30;;;;;;;8.09;65.32;102510.09;6217720;28;20544;-71
2021/04/24 08:53:01;;;;;;;15.07;4.72;;;;;;;7.82;66.41;102505.25;6225169;28;20050;-72
2021/04/24 08:56:03;;;;;;;12.35;3.90;;;;;;;7.68;65.75;102504.59;6226017;28;20050;-72
2021/04/24 08:59:04;;;;;;;14.30;4.00;;;;;;;7.46;67.81;102501.38;6225736;28;20050;-72
2021/04/24 09:02:05;;;;;;;20.95;4.63;;;;;;;7.86;67.99;102499.09;6224606;28;20046;-72
2021/04/24 09:05:08;;;;;;;18.00;4.72;;;;;;;8.08;65.05;102499.63;6214344;28;20054;-73
2021/04/24 09:08:10;;;;;;;12.27;3.33;;;;;;;8.29;64.10;102501.94;6222801;28;20559;-72
2021/04/24 09:11:13;;;;;;;13.32;4.10;;;;;;;8.25;61.77;102507.25;6225492;28;20050;-73
2021/04/24 09:14:17;;;;;;;14.40;4.30;;;;;;;8.39;63.40;102502.69;6218801;28;20426;-72
2021/04/24 09:17:17;;;;;;;15.32;4.00;;;;;;;8.67;63.40;102504.84;6200055;28;20499;-72
2021/04/24 09:20:19;;;;;;;15.75;4.15;;;;;;;8.95;62.09;102500.88;6199140;28;20085;-73
2021/04/24 09:23:22;;;;;;;9.75;3.58;;;;;;;8.77;63.27;102509.06;6199700;28;20057;-73
2021/04/24 09:26:26;;;;;;;13.80;4.10;;;;;;;8.84;62.91;102511.53;6201390;28;20192;-73
2021/04/24 09:29:28;;;;;;;10.32;4.13;;;;;;;9.00;60.27;102504.25;6201160;28;20054;-75
2021/04/24 09:32:29;;;;;;;12.68;4.15;;;;;;;8.83;62.43;102507.19;6201207;28;20061;-72
2021/04/24 09:35:39;;;;;;;10.48;3.60;;;;;;;9.16;60.33;102510.06;6200687;28;20050;-72
2021/04/24 09:38:42;;;;;;;9.70;4.18;;;;;;;9.29;58.97;102505.47;6200615;28;20440;-74
2021/04/24 09:41:43;;;;;;;12.10;4.07;;;;;;;9.26;61.35;102492.41;6200674;28;20046;-72
2021/04/24 09:44:44;;;;;;;9.27;4.07;;;;;;;9.22;60.32;102491.63;6198641;28;20111;-72
2021/04/24 09:47:46;;;;;;;14.05;4.22;;;;;;;9.43;59.95;102502.56;6200203;28;20519;-72
2021/04/24 09:50:47;;;;;;;14.27;4.63;;;;;;;9.77;58.43;102489.59;6199102;28;20081;-72
2021/04/24 09:53:56;;;;;;;13.50;3.95;;;;;;;9.82;59.45;102493.00;6200480;28;20046;-72
2021/04/24 09:57:02;;;;;;;7.68;4.10;;;;;;;9.55;57.43;102481.31;6200435;28;20050;-72
2021/04/24 10:00:07;;;;;;;16.25;3.90;;;;;;;9.36;55.69;102488.72;6200186;28;20053;-72
2021/04/24 10:03:08;;;;;;;8.05;3.97;;;;;;;9.00;57.02;102480.66;6199962;28;20049;-73
2021/04/24 10:06:26;;;;;;;9.90;3.08;;;;;;;9.27;54.55;102475.78;6200067;28;20050;-73
2021/04/24 10:09:29;;;;;;;5.32;3.00;;;;;;;9.59;54.07;102473.34;6199789;28;20422;-72
2021/04/24 10:12:30;;;;;;;10.50;3.65;;;;;;;9.73;54.97;102475.66;6200157;28;20096;-73
2021/04/24 10:15:36;;;;;;;11.20;3.40;;;;;;;10.09;54.46;102466.09;6199289;28;20046;-73
2021/04/24 10:18:37;;;;;;;9.80;3.45;;;;;;;10.30;51.52;102463.88;6197410;28;20193;-72
2021/04/24 10:21:37;;;;;;;9.80;3.28;;;;;;;10.33;52.14;102475.16;6198535;28;20061;-72
2021/04/24 10:24:39;;;;;;;9.98;3.38;;;;;;;10.41;49.07;102465.34;6198752;28;20042;-72
2021/04/24 10:27:41;;;;;;;5.65;3.03;;;;;;;10.38;49.62;102459.28;6199562;28;20058;-72
2021/04/24 10:30:42;;;;;;;11.40;2.72;;;;;;;10.37;49.44;102457.56;6199336;28;20061;-72
2021/04/24 10:33:44;;;;;;;14.02;2.90;;;;;;;10.65;52.47;102460.34;6199411;28;20052;-72
2021/04/24 10:36:46;;;;;;;10.38;2.97;;;;;;;10.98;49.26;102465.59;6199325;28;20050;-72
2021/04/24 10:39:47;;;;;;;12.27;3.60;;;;;;;11.22;46.37;102453.53;6199458;28;20050;-74
2021/04/24 10:42:52;;;;;;;8.82;3.05;;;;;;;10.99;47.56;102462.97;6199009;28;20050;-74
2021/04/24 10:45:53;;;;;;;10.48;2.45;;;;;;;11.35;47.07;102463.66;6199275;28;20050;-74
2021/04/24 10:49:17;;;;;;;5.82;2.28;;;;;;;10.96;48.59;102468.28;6198996;28;20138;-75
2021/04/24 10:52:20;;;;;;;11.82;2.85;;;;;;;10.68;44.34;102464.69;6199048;28;20142;-74
2021/04/24 10:55:29;;;;;;;8.60;2.95;;;;;;;10.36;48.52;102454.09;6198542;28;20561;-74
2021/04/24 10:58:32;;;;;;;14.10;2.63;;;;;;;10.65;47.47;102460.34;6198850;28;20061;-74
2021/04/24 11:02:01;;;;;;;7.65;2.53;;;;;;;10.60;46.32;102456.97;6198536;28;20546;-74
2021/04/24 11:05:15;;;;;;;6.88;2.83;;;;;;;10.54;46.27;102451.91;6198372;28;20053;-72
2021/04/24 11:08:26;;;;;;;7.00;2.47;;;;;;;10.48;46.80;102450.25;6198471;28;20535;-74
2021/04/24 11:11:29;;;;;;;9.43;2.20;;;;;;;10.48;47.35;102447.63;6198699;28;20061;-74
2021/04/24 11:14:31;;;;;;;10.82;2.50;;;;;;;10.88;44.29;102444.81;6198242;28;20057;-75
2021/04/24 11:17:35;;;;;;;5.68;2.30;;;;;;;11.27;45.43;102436.72;6198604;28;20050;-75
2021/04/24 11:20:47;;;;;;;12.07;2.53;;;;;;;11.18;46.52;102440.47;6196639;28;20410;-73
2021/04/24 11:23:54;;;;;;;6.20;2.22;;;;;;;11.37;43.07;102437.31;6195472;28;20431;-73
2021/04/24 11:26:54;;;;;;;15.13;2.30;;;;;;;11.29;45.33;102440.16;6196976;28;20046;-73
2021/04/24 11:29:56;;;;;;;7.10;2.15;;;;;;;11.57;41.77;102440.19;6198360;28;20073;-73
2021/04/24 11:33:33;;;;;;;7.70;2.58;;;;;;;12.01;42.57;102430.06;6197855;28;20057;-74
2021/04/24 11:36:34;;;;;;;9.90;2.47;;;;;;;12.25;44.80;102432.81;6198063;28;20058;-74
2021/04/24 11:39:35;;;;;;;10.32;2.50;;;;;;;12.53;40.98;102430.97;6197952;28;20096;-74
2021/04/24 11:42:38;;;;;;;10.32;3.40;;;;;;;12.13;44.46;102426.19;6198102;28;20072;-75
2021/04/24 11:45:47;;;;;;;15.75;2.92;;;;;;;11.89;42.70;102431.31;6197319;28;20563;-72
2021/04/24 11:49:05;;;;;;;18.73;2.45;;;;;;;11.99;47.24;102441.56;6198035;28;20133;-72
2021/04/24 11:52:09;;;;;;;12.43;2.40;;;;;;;12.73;41.71;102430.28;6197761;28;20058;-74
2021/04/24 11:55:11;;;;;;;18.27;2.95;;;;;;;12.90;41.88;102429.69;6197805;28;20050;-74
2021/04/24 11:58:13;;;;;;;20.60;2.97;;;;;;;12.77;44.46;102431.03;6197459;28;20507;-74
2021/04/24 12:01:22;;;;;;;19.63;3.28;;;;;;;12.08;43.80;102436.88;6197746;28;20046;-74
2021/04/24 12:04:34;;;;;;;12.15;3.15;;;;;;;12.47;43.50;102425.91;6197510;28;20046;-74
2021/04/24 12:07:39;;;;;;;10.45;2.25;;;;;;;12.76;43.53;102427.50;6197850;28;20138;-74
2021/04/24 12:10:40;;;;;;;10.35;2.20;;;;;;;12.81;40.13;102419.44;6197590;28;20418;-73
2021/04/24 12:13:47;;;;;;;5.35;2.03;;;;;;;13.37;40.86;102422.66;6197388;28;20430;-74
2021/04/24 12:16:50;;;;;;;12.10;2.50;;;;;;;14.00;37.37;102412.25;6197514;28;20101;-74
2021/04/24 12:19:50;;;;;;;9.13;2.42;;;;;;;13.40;39.94;102421.69;6197671;28;20050;-74
2021/04/24 12:22:52;;;;;;;11.90;2.47;;;;;;;12.63;41.27;102431.53;6197209;28;20124;-75
2021/04/24 12:25:53;;;;;;;9.50;2.60;;;;;;;12.05;43.44;102426.44;6200616;28;20053;-74
2021/04/24 12:28:54;;;;;;;12.60;2.83;;;;;;;11.98;43.84;102431.94;6210358;28;20046;-72
2021/04/24 12:31:56;;;;;;;13.15;2.47;;;;;;;11.99;48.22;102421.38;6213439;28;20042;-74
2021/04/24 12:35:04;;;;;;;9.98;2.53;;;;;;;12.79;39.88;102414.22;6221698;28;20060;-74
2021/04/24 12:38:06;;;;;;;8.13;1.88;;;;;;;12.83;41.55;102426.41;6221591;28;20046;-75
2021/04/24 12:41:13;;;;;;;19.20;3.25;;;;;;;12.28;42.85;102417.75;6221742;28;20050;-75
2021/04/24 12:44:26;;;;;;;9.05;2.17;;;;;;;11.88;42.99;102412.94;6216935;28;20502;-73
2021/04/24 12:47:28;;;;;;;15.35;2.38;;;;;;;11.47;44.72;102407.16;6207601;28;20532;-75
2021/04/24 12:50:32;;;;;;;12.75;2.72;;;;;;;12.51;41.44;102405.56;6213240;28;20060;-75
2021/04/24 12:53:37;;;;;;;9.82;2.65;;;;;;;13.26;39.73;102398.44;6221365;28;20074;-75
2021/04/24 12:56:38;;;;;;;11.52;2.22;;;;;;;13.29;39.52;102389.53;6218361;28;20566;-74
2021/04/24 12:59:39;;;;;;;12.48;2.47;;;;;;;13.44;41.36;102384.56;6259718;23;20068;-78
2021/04/24 13:02:41;;;;;;;9.10;2.65;;;;;;;13.60;40.50;102383.94;6253400;28;20428;-77
2021/04/24 13:05:42;;;;;;;19.75;3.38;;;;;;;13.46;40.87;102381.84;6250488;28;20054;-77
2021/04/24 13:08:43;;;;;;;20.17;3.25;;;;;;;13.18;44.76;102384.66;6228676;28;20050;-77
2021/04/24 13:11:48;;;;;;;15.15;3.30;;;;;;;12.96;41.81;102381.97;6202472;28;20178;-76
2021/04/24 13:14:50;;;;;;;13.98;3.42;;;;;;;12.42;42.29;102377.75;6202219;28;20046;-77
2021/04/24 13:17:52;;;;;;;10.48;2.25;;;;;;;13.18;44.72;102377.59;6203859;28;20047;-77
2021/04/24 13:20:54;;;;;;;11.38;2.50;;;;;;;13.88;40.52;102371.31;6213700;28;20045;-77
2021/04/24 13:24:07;;;;;;;11.93;2.40;;;;;;;14.04;40.19;102373.34;6213571;28;20046;-77
2021/04/24 13:27:08;;;;;;;9.13;2.17;;;;;;;14.49;37.21;102359.09;6213648;28;20125;-77
2021/04/24 13:30:11;;;;;;;10.52;2.17;;;;;;;14.50;36.60;102356.38;6214868;28;20042;-77
2021/04/24 13:33:12;;;;;;;20.40;2.40;;;;;;;14.13;36.86;102349.16;6212461;28;20117;-77
2021/04/24 13:36:16;;;;;;;4.72;1.35;;;;;;;14.69;33.87;102344.06;6212434;28;20054;-76
2021/04/24 13:39:17;;;;;;;7.93;1.73;;;;;;;14.56;34.55;102339.38;6212396;28;20057;-78
2021/04/24 13:42:20;;;;;;;20.05;2.83;;;;;;;14.55;34.57;102335.03;6208955;28;20042;-78
2021/04/24 13:45:21;;;;;;;9.05;1.70;;;;;;;14.62;35.14;102332.00;6213538;28;20525;-78
2021/04/24 13:48:27;;;;;;;10.15;2.40;;;;;;;15.05;35.93;102327.41;6226777;28;20050;-78
2021/04/24 13:51:28;;;;;;;8.88;1.83;;;;;;;15.16;35.17;102327.75;6228119;28;20042;-78
2021/04/24 13:54:29;;;;;;;9.10;2.42;;;;;;;14.73;35.40;102323.63;6227205;28;20054;-78
2021/04/24 13:57:30;;;;;;;7.93;1.50;;;;;;;14.35;34.68;102333.22;6227495;28;20054;-78
2021/04/24 14:00:31;;;;;;;9.48;1.90;;;;;;;15.01;36.50;102320.53;6228438;28;20058;-80
2021/04/24 14:03:33;;;;;;;3.17;1.38;;;;;;;15.57;37.73;102316.09;6228546;28;20053;-80
2021/04/24 14:06:33;;;;;;;6.43;1.98;;;;;;;16.19;32.64;102320.91;6228617;28;20054;-80